createdAt,value
2022-11-30T00:01:32.357Z,4.10
2022-11-30T00:04:00.612Z,4.10
2022-11-30T00:06:29.122Z,4.10
2022-11-30T00:08:59.587Z,4.20
2022-11-30T00:11:29.750Z,4.20
2022-11-30T00:14:00.858Z,4.20
2022-11-30T00:16:32.548Z,4.20
2022-11-30T00:19:00.887Z,4.20
2022-11-30T00:21:29.218Z,4.30
2022-11-30T00:23:58.883Z,4.20
2022-11-30T00:26:26.964Z,4.20
2022-11-30T00:28:55.340Z,4.20
2022-11-30T00:31:24.880Z,4.20
2022-11-30T00:33:53.352Z,4.20
2022-11-30T00:36:23.132Z,4.10
2022-11-30T00:38:54.588Z,4.10
2022-11-30T00:41:30.632Z,4.10
2022-11-30T00:44:06.197Z,4.10
2022-11-30T00:46:34.406Z,4.10
2022-11-30T00:49:02.685Z,4.10
2022-11-30T00:51:30.939Z,4.10
2022-11-30T00:53:59.014Z,4.10
2022-11-30T00:56:28.564Z,4.10
2022-11-30T00:58:56.786Z,4.00
2022-11-30T01:01:25.077Z,4.00
2022-11-30T01:03:53.601Z,4.00
2022-11-30T01:06:21.676Z,4.00
2022-11-30T01:08:49.829Z,4.00
2022-11-30T01:11:21.752Z,4.00
2022-11-30T01:13:54.373Z,4.00
2022-11-30T01:16:25.814Z,4.00
2022-11-30T01:18:54.609Z,3.90
2022-11-30T01:21:27.546Z,3.90
2022-11-30T01:23:56.548Z,3.90
2022-11-30T01:26:25.363Z,3.90
2022-11-30T01:28:56.281Z,3.90
2022-11-30T01:31:25.948Z,4.00
2022-11-30T01:33:55.947Z,3.90
2022-11-30T01:36:26.512Z,3.90
2022-11-30T01:38:56.453Z,3.80
2022-11-30T01:41:29.920Z,3.90
2022-11-30T01:44:19.509Z,3.80
2022-11-30T01:46:55.127Z,3.90
2022-11-30T01:49:29.576Z,3.90
2022-11-30T01:52:01.869Z,3.90
2022-11-30T01:54:34.961Z,3.80
2022-11-30T01:57:06.384Z,3.80
2022-11-30T01:59:36.076Z,3.80
2022-11-30T02:02:04.407Z,3.80
2022-11-30T02:04:37.394Z,3.80
2022-11-30T02:07:08.460Z,3.80
2022-11-30T02:09:43.273Z,3.80
2022-11-30T02:12:23.187Z,3.80
2022-11-30T02:14:57.549Z,3.80
2022-11-30T02:17:35.547Z,3.80
2022-11-30T02:20:42.443Z,3.80
2022-11-30T02:23:36.527Z,3.80
2022-11-30T02:26:19.589Z,3.80
2022-11-30T02:29:11.819Z,3.80
2022-11-30T02:31:44.913Z,3.80
2022-11-30T02:34:17.201Z,3.70
2022-11-30T02:36:47.241Z,3.80
2022-11-30T02:39:15.545Z,3.80
2022-11-30T02:41:43.743Z,3.80
2022-11-30T02:44:15.045Z,3.80
2022-11-30T02:46:54.766Z,3.80
2022-11-30T02:49:32.276Z,3.80
2022-11-30T02:52:02.425Z,3.80
2022-11-30T02:54:30.629Z,3.80
2022-11-30T02:56:59.160Z,3.80
2022-11-30T02:59:29.162Z,3.80
2022-11-30T03:01:57.511Z,3.80
2022-11-30T03:04:25.687Z,3.70
2022-11-30T03:06:53.764Z,3.80
2022-11-30T03:09:22.128Z,3.80
2022-11-30T03:11:52.445Z,3.80
2022-11-30T03:14:20.613Z,3.80
2022-11-30T03:16:50.108Z,3.80
2022-11-30T03:19:21.325Z,3.80
2022-11-30T03:21:50.225Z,3.80
2022-11-30T03:24:20.979Z,3.80
2022-11-30T03:26:49.271Z,3.80
2022-11-30T03:29:17.556Z,3.80
2022-11-30T03:31:45.967Z,3.80
2022-11-30T03:34:15.627Z,3.80
2022-11-30T03:36:43.864Z,3.80
2022-11-30T03:39:13.445Z,3.70
2022-11-30T03:41:41.501Z,3.70
2022-11-30T03:44:09.642Z,3.70
2022-11-30T03:46:37.893Z,3.70
2022-11-30T03:49:07.421Z,3.70
2022-11-30T03:51:37.024Z,3.70
2022-11-30T03:54:05.306Z,3.70
2022-11-30T03:56:33.611Z,3.70
2022-11-30T03:59:01.767Z,3.70
2022-11-30T04:01:30.771Z,3.70
2022-11-30T04:03:58.998Z,3.70
2022-11-30T04:06:27.095Z,3.70
2022-11-30T04:08:56.595Z,3.70
2022-11-30T04:11:24.784Z,3.60
2022-11-30T04:13:53.030Z,3.60
2022-11-30T04:16:23.232Z,3.70
2022-11-30T04:18:53.693Z,3.60
2022-11-30T04:21:21.805Z,3.60
2022-11-30T04:23:49.932Z,3.60
2022-11-30T04:26:19.390Z,3.60
2022-11-30T04:28:47.743Z,3.60
2022-11-30T04:31:15.910Z,3.60
2022-11-30T04:33:44.097Z,3.60
2022-11-30T04:36:19.437Z,3.60
2022-11-30T04:38:48.095Z,3.50
2022-11-30T04:41:16.573Z,3.50
2022-11-30T04:43:46.174Z,3.60
2022-11-30T04:46:14.666Z,3.50
2022-11-30T04:48:42.850Z,3.50
2022-11-30T04:51:10.976Z,3.50
2022-11-30T04:53:39.385Z,3.50
2022-11-30T04:56:08.439Z,3.50
2022-11-30T04:58:39.109Z,3.50
2022-11-30T05:01:09.300Z,3.60
2022-11-30T05:03:37.847Z,3.50
2022-11-30T05:06:06.578Z,3.50
2022-11-30T05:08:34.655Z,3.50
2022-11-30T05:11:02.745Z,3.50
2022-11-30T05:13:33.201Z,3.50
2022-11-30T05:16:03.713Z,3.50
2022-11-30T05:18:33.455Z,3.50
2022-11-30T05:21:01.543Z,3.60
2022-11-30T05:23:29.719Z,3.50
2022-11-30T05:25:57.792Z,3.60
2022-11-30T05:28:25.858Z,3.60
2022-11-30T05:30:53.954Z,3.60
2022-11-30T05:33:22.094Z,3.60
2022-11-30T05:35:51.570Z,3.60
2022-11-30T05:38:19.667Z,3.60
2022-11-30T05:40:48.070Z,3.60
2022-11-30T05:43:16.466Z,3.50
2022-11-30T05:45:44.511Z,3.60
2022-11-30T05:48:12.653Z,3.60
2022-11-30T05:50:40.757Z,3.60
2022-11-30T05:53:10.241Z,3.60
2022-11-30T05:55:38.436Z,3.60
2022-11-30T05:58:06.675Z,3.60
2022-11-30T06:00:34.827Z,3.70
2022-11-30T06:03:03.161Z,3.70
2022-11-30T06:05:31.514Z,3.70
2022-11-30T06:08:00.796Z,3.60
2022-11-30T06:10:30.320Z,3.60
2022-11-30T06:12:58.404Z,3.60
2022-11-30T06:15:26.482Z,3.60
2022-11-30T06:17:57.200Z,3.60
2022-11-30T06:20:25.387Z,3.60
2022-11-30T06:22:53.494Z,3.60
2022-11-30T06:25:21.632Z,3.60
2022-11-30T06:27:51.104Z,3.60
2022-11-30T06:30:19.394Z,3.60
2022-11-30T06:32:47.741Z,3.60
2022-11-30T06:35:15.962Z,3.60
2022-11-30T06:37:44.224Z,3.60
2022-11-30T06:40:14.791Z,3.70
2022-11-30T06:42:42.940Z,3.70
2022-11-30T06:45:13.160Z,3.70
2022-11-30T06:47:41.609Z,3.70
2022-11-30T06:50:10.285Z,3.70
2022-11-30T06:52:38.479Z,3.70
2022-11-30T06:55:09.561Z,3.70
2022-11-30T06:57:37.690Z,3.70
2022-11-30T07:00:08.410Z,3.80
2022-11-30T07:02:38.006Z,3.70
2022-11-30T07:05:07.101Z,3.70
2022-11-30T07:07:36.223Z,3.70
2022-11-30T07:10:06.171Z,3.80
2022-11-30T07:12:36.397Z,3.70
2022-11-30T07:15:05.161Z,3.70
2022-11-30T07:17:33.356Z,3.70
2022-11-30T07:20:02.809Z,3.80
2022-11-30T07:22:30.913Z,3.80
2022-11-30T07:25:16.361Z,3.80
2022-11-30T07:27:44.733Z,3.80
2022-11-30T07:30:13.901Z,3.90
2022-11-30T07:32:42.018Z,3.80
2022-11-30T07:35:11.637Z,3.80
2022-11-30T07:37:39.780Z,3.80
2022-11-30T07:40:10.943Z,3.80
2022-11-30T07:42:39.042Z,3.80
2022-11-30T07:45:08.312Z,3.80
2022-11-30T07:47:37.056Z,3.80
2022-11-30T07:50:05.856Z,3.90
2022-11-30T07:52:35.287Z,3.90
2022-11-30T07:55:04.578Z,3.90
2022-11-30T07:57:32.998Z,3.90
2022-11-30T08:00:01.219Z,3.90
2022-11-30T08:02:29.846Z,3.80
2022-11-30T08:04:58.792Z,3.80
2022-11-30T08:07:29.180Z,3.80
2022-11-30T08:10:00.763Z,3.80
2022-11-30T08:12:29.909Z,3.80
2022-11-30T08:15:19.475Z,3.80
2022-11-30T08:17:46.152Z,3.90
2022-11-30T08:20:14.778Z,3.90
2022-11-30T08:22:42.987Z,3.90
2022-11-30T08:25:12.512Z,4.00
2022-11-30T08:27:43.972Z,4.00
2022-11-30T08:30:12.497Z,4.10
2022-11-30T08:32:40.677Z,4.10
2022-11-30T08:35:09.601Z,4.00
2022-11-30T08:37:38.833Z,4.00
2022-11-30T08:40:08.359Z,3.90
2022-11-30T08:42:37.931Z,3.90
2022-11-30T08:45:06.968Z,4.00
2022-11-30T08:47:35.189Z,4.00
2022-11-30T08:50:03.578Z,4.10
2022-11-30T08:52:32.009Z,4.10
2022-11-30T08:55:00.142Z,4.00
2022-11-30T08:57:29.045Z,4.10
2022-11-30T08:59:58.520Z,4.10
2022-11-30T09:02:26.744Z,4.10
2022-11-30T09:04:57.249Z,4.20
2022-11-30T09:07:25.589Z,4.20
2022-11-30T09:09:53.763Z,4.30
2022-11-30T09:12:22.168Z,4.30
2022-11-30T09:14:57.168Z,4.10
2022-11-30T09:17:27.760Z,4.10
2022-11-30T09:19:56.123Z,4.20
2022-11-30T09:22:24.403Z,4.20
2022-11-30T09:24:52.610Z,4.20
2022-11-30T09:27:20.983Z,4.20
2022-11-30T09:29:49.076Z,4.30
2022-11-30T09:32:17.442Z,4.20
2022-11-30T09:34:48.520Z,4.20
2022-11-30T09:37:18.837Z,4.30
2022-11-30T09:39:47.418Z,4.30
2022-11-30T09:42:34.479Z,4.40
2022-11-30T09:45:07.686Z,4.50
2022-11-30T09:48:07.050Z,4.70
2022-11-30T09:50:43.187Z,4.60
2022-11-30T09:53:27.625Z,4.50
2022-11-30T09:55:57.811Z,4.50
2022-11-30T09:58:37.370Z,4.60
2022-11-30T10:01:07.673Z,4.70
2022-11-30T10:03:35.894Z,4.70
2022-11-30T10:06:12.382Z,4.70
2022-11-30T10:08:52.820Z,4.50
2022-11-30T10:11:39.078Z,4.70
2022-11-30T10:14:23.542Z,4.60
2022-11-30T10:17:01.515Z,4.60
2022-11-30T10:19:48.610Z,4.80
2022-11-30T10:22:25.668Z,4.80
2022-11-30T10:25:11.862Z,4.80
2022-11-30T10:27:50.852Z,4.80
2022-11-30T10:30:23.181Z,4.90
2022-11-30T10:32:54.297Z,4.80
2022-11-30T10:35:32.836Z,4.80
2022-11-30T10:38:11.838Z,5.00
2022-11-30T10:40:46.944Z,5.00
2022-11-30T10:43:20.281Z,4.90
2022-11-30T10:45:50.360Z,5.00
2022-11-30T10:48:25.041Z,5.00
2022-11-30T10:50:54.154Z,5.20
2022-11-30T10:53:23.896Z,5.30
2022-11-30T10:55:59.673Z,5.20
2022-11-30T10:58:32.641Z,5.10
2022-11-30T11:01:05.157Z,5.30
2022-11-30T11:03:34.330Z,5.50
2022-11-30T11:06:15.270Z,5.50
2022-11-30T11:08:46.899Z,5.40
2022-11-30T11:11:30.455Z,5.30
2022-11-30T11:14:15.121Z,5.20
2022-11-30T11:16:55.551Z,5.20
2022-11-30T11:19:32.738Z,5.40
2022-11-30T11:22:03.717Z,5.30
2022-11-30T11:24:34.017Z,5.40
2022-11-30T11:27:02.326Z,5.20
2022-11-30T11:29:33.603Z,5.10
2022-11-30T11:32:21.942Z,4.90
2022-11-30T11:34:51.475Z,4.90
2022-11-30T11:37:26.315Z,5.00
2022-11-30T11:40:02.200Z,5.10
2022-11-30T11:42:33.409Z,5.00
2022-11-30T11:45:03.169Z,5.00
2022-11-30T11:47:40.663Z,5.20
2022-11-30T11:50:57.876Z,5.30
2022-11-30T11:53:25.146Z,5.30
2022-11-30T11:56:03.608Z,5.20
2022-11-30T11:58:41.836Z,5.30
2022-11-30T12:01:39.098Z,5.20
2022-11-30T12:04:17.983Z,5.10
2022-11-30T12:06:47.608Z,5.10
2022-11-30T12:09:19.467Z,5.00
2022-11-30T12:11:50.329Z,5.10
2022-11-30T12:14:20.226Z,5.00
2022-11-30T12:17:13.855Z,5.00
2022-11-30T12:19:59.400Z,5.00
2022-11-30T12:22:52.717Z,4.90
2022-11-30T12:25:23.087Z,5.00
2022-11-30T12:28:16.077Z,5.00
2022-11-30T12:30:54.678Z,5.00
2022-11-30T12:33:32.043Z,5.00
2022-11-30T12:36:08.450Z,5.10
2022-11-30T12:38:47.025Z,5.20
2022-11-30T12:41:31.324Z,5.10
2022-11-30T12:44:16.651Z,4.90
2022-11-30T12:46:53.749Z,4.70
2022-11-30T12:49:35.115Z,4.90
2022-11-30T12:52:14.027Z,4.90
2022-11-30T12:54:53.517Z,5.00
2022-11-30T12:57:27.870Z,5.10
2022-11-30T13:00:06.771Z,5.10
2022-11-30T13:03:16.795Z,4.80
2022-11-30T13:05:48.997Z,4.80
2022-11-30T13:08:24.450Z,4.80
2022-11-30T13:10:57.549Z,4.80
2022-11-30T13:13:30.521Z,4.50
2022-11-30T13:16:02.929Z,4.40
2022-11-30T13:18:34.344Z,4.30
2022-11-30T13:21:09.453Z,4.10
2022-11-30T13:23:41.485Z,4.10
2022-11-30T13:26:19.097Z,4.10
2022-11-30T13:29:03.096Z,4.00
2022-11-30T13:31:37.667Z,3.80
2022-11-30T13:34:24.851Z,3.80
2022-11-30T13:37:03.277Z,3.80
2022-11-30T13:39:37.248Z,3.70
2022-11-30T13:42:32.701Z,3.60
2022-11-30T13:45:17.222Z,3.60
2022-11-30T13:47:50.026Z,3.40
2022-11-30T13:50:21.851Z,3.20
2022-11-30T13:53:19.998Z,3.10
2022-11-30T13:56:02.432Z,3.10
2022-11-30T13:58:32.470Z,3.00
2022-11-30T14:01:24.256Z,2.90
2022-11-30T14:04:31.072Z,2.90
2022-11-30T14:07:00.733Z,2.80
2022-11-30T14:09:58.155Z,2.50
2022-11-30T14:12:58.223Z,2.50
2022-11-30T14:15:48.925Z,2.50
2022-11-30T14:18:34.285Z,2.20
2022-11-30T14:21:11.810Z,1.80
2022-11-30T14:23:48.423Z,1.80
2022-11-30T14:26:18.527Z,1.80
2022-11-30T14:28:53.728Z,1.70
2022-11-30T14:31:25.358Z,1.70
2022-11-30T14:33:56.728Z,1.60
2022-11-30T14:36:34.573Z,1.70
2022-11-30T14:39:02.746Z,1.60
2022-11-30T14:41:32.463Z,1.60
2022-11-30T14:44:07.189Z,1.50
2022-11-30T14:46:36.414Z,1.50
2022-11-30T14:49:12.475Z,1.50
2022-11-30T14:51:45.498Z,1.60
2022-11-30T14:54:28.188Z,1.60
2022-11-30T14:57:03.843Z,1.60
2022-11-30T14:59:44.860Z,1.70
2022-11-30T15:02:21.299Z,1.70
2022-11-30T15:04:51.891Z,1.70
2022-11-30T15:07:22.979Z,1.70
2022-11-30T15:10:01.010Z,1.60
2022-11-30T15:12:29.217Z,1.50
2022-11-30T15:15:04.337Z,1.50
2022-11-30T15:17:32.797Z,1.50
2022-11-30T15:20:00.968Z,1.60
2022-11-30T15:22:35.223Z,1.50
2022-11-30T15:25:03.531Z,1.60
2022-11-30T15:27:32.154Z,1.50
2022-11-30T15:30:02.451Z,1.50
2022-11-30T15:32:30.898Z,1.60
2022-11-30T15:35:01.086Z,1.60
2022-11-30T15:37:33.269Z,1.60
2022-11-30T15:40:04.464Z,1.50
2022-11-30T15:42:39.847Z,1.60
2022-11-30T15:45:18.380Z,1.70
2022-11-30T15:47:46.575Z,1.60
2022-11-30T15:50:45.057Z,1.60
2022-11-30T15:53:33.018Z,1.60
2022-11-30T15:56:07.603Z,1.70
2022-11-30T15:58:44.859Z,1.80
2022-11-30T16:01:16.930Z,1.60
2022-11-30T16:04:06.889Z,1.60
2022-11-30T16:06:39.437Z,1.60
2022-11-30T16:09:20.329Z,1.60
2022-11-30T16:11:51.310Z,1.60
2022-11-30T16:14:19.538Z,1.60
2022-11-30T16:16:47.988Z,1.60
2022-11-30T16:19:16.310Z,1.50
2022-11-30T16:21:44.971Z,1.50
2022-11-30T16:24:16.859Z,1.50
2022-11-30T16:26:53.104Z,1.40
2022-11-30T16:29:23.728Z,1.50
2022-11-30T16:31:51.920Z,1.50
2022-11-30T16:34:21.986Z,1.60
2022-11-30T16:36:50.513Z,1.50
2022-11-30T16:39:20.090Z,1.50
2022-11-30T16:41:48.297Z,1.60
2022-11-30T16:44:17.669Z,1.60
2022-11-30T16:46:45.955Z,1.60
2022-11-30T16:49:14.198Z,1.50
2022-11-30T16:51:42.759Z,1.50
2022-11-30T16:54:14.034Z,1.50
2022-11-30T16:56:44.078Z,1.50
2022-11-30T16:59:16.588Z,1.60
2022-11-30T17:01:48.330Z,1.70
2022-11-30T17:04:20.086Z,1.60
2022-11-30T17:06:50.895Z,1.70
2022-11-30T17:09:21.899Z,1.60
2022-11-30T17:11:52.462Z,1.70
2022-11-30T17:14:22.018Z,1.70
2022-11-30T17:16:50.402Z,1.70
2022-11-30T17:19:19.781Z,1.80
2022-11-30T17:21:48.833Z,1.80
2022-11-30T17:24:17.189Z,1.70
2022-11-30T17:26:47.709Z,1.70
2022-11-30T17:29:17.588Z,1.80
2022-11-30T17:31:47.197Z,1.70
2022-11-30T17:34:15.457Z,1.80
2022-11-30T17:36:44.224Z,1.70
2022-11-30T17:39:13.164Z,1.70
2022-11-30T17:41:41.616Z,1.70
2022-11-30T17:44:11.060Z,1.70
2022-11-30T17:46:45.329Z,1.70
2022-11-30T17:49:18.430Z,1.60
2022-11-30T17:51:46.725Z,1.70
2022-11-30T17:54:15.360Z,1.60
2022-11-30T17:56:44.610Z,1.60
2022-11-30T17:59:13.286Z,1.60
2022-11-30T18:01:42.924Z,1.70
2022-11-30T18:04:11.579Z,1.80
2022-11-30T18:06:39.733Z,1.80
2022-11-30T18:09:07.992Z,1.90
2022-11-30T18:11:36.132Z,1.90
2022-11-30T18:14:04.445Z,1.80
2022-11-30T18:16:34.150Z,1.80
2022-11-30T18:19:11.695Z,1.70
2022-11-30T18:21:41.646Z,1.70
2022-11-30T18:24:11.055Z,1.70
2022-11-30T18:26:40.014Z,1.70
2022-11-30T18:29:09.259Z,1.70
2022-11-30T18:31:37.520Z,1.60
2022-11-30T18:34:08.320Z,1.70
2022-11-30T18:36:36.407Z,1.80
2022-11-30T18:39:05.354Z,1.80
2022-11-30T18:41:34.140Z,1.80
2022-11-30T18:44:02.333Z,1.80
2022-11-30T18:46:31.636Z,1.80
2022-11-30T18:49:01.214Z,1.70
2022-11-30T18:51:33.524Z,1.70
2022-11-30T18:54:03.203Z,1.60
2022-11-30T18:56:33.674Z,1.60
2022-11-30T18:59:03.556Z,1.70
2022-11-30T19:01:32.610Z,1.70
2022-11-30T19:04:02.572Z,1.70
2022-11-30T19:06:33.251Z,1.60
2022-11-30T19:09:03.345Z,1.60
2022-11-30T19:11:33.272Z,1.70
2022-11-30T19:14:02.188Z,1.60
2022-11-30T19:16:31.857Z,1.70
2022-11-30T19:19:01.391Z,1.70
2022-11-30T19:21:31.627Z,1.60
2022-11-30T19:24:00.412Z,1.50
2022-11-30T19:26:29.000Z,1.40
2022-11-30T19:28:57.893Z,1.40
2022-11-30T19:31:27.181Z,1.30
2022-11-30T19:33:57.088Z,1.30
2022-11-30T19:36:27.168Z,1.30
2022-11-30T19:38:58.789Z,1.20
2022-11-30T19:41:27.210Z,1.30
2022-11-30T19:44:02.454Z,1.40
2022-11-30T19:46:33.540Z,1.30
2022-11-30T19:49:02.395Z,1.30
2022-11-30T19:51:32.231Z,1.20
2022-11-30T19:54:03.886Z,1.30
2022-11-30T19:56:34.597Z,1.30
2022-11-30T19:59:05.537Z,1.20
2022-11-30T20:01:35.214Z,1.20
2022-11-30T20:04:03.607Z,1.20
2022-11-30T20:06:34.602Z,1.30
2022-11-30T20:09:05.718Z,1.30
2022-11-30T20:11:34.004Z,1.30
2022-11-30T20:14:02.251Z,1.30
2022-11-30T20:16:30.678Z,1.30
2022-11-30T20:19:01.612Z,1.30
2022-11-30T20:21:32.026Z,1.30
2022-11-30T20:24:04.314Z,1.30
2022-11-30T20:26:38.228Z,1.20
2022-11-30T20:29:08.123Z,1.20
2022-11-30T20:31:37.726Z,1.10
2022-11-30T20:34:08.186Z,1.10
2022-11-30T20:36:37.272Z,1.20
2022-11-30T20:39:08.009Z,1.10
2022-11-30T20:41:36.201Z,1.20
2022-11-30T20:44:04.593Z,1.30
2022-11-30T20:46:34.409Z,1.30
2022-11-30T20:49:03.700Z,1.30
2022-11-30T20:51:34.606Z,1.40
2022-11-30T20:54:05.536Z,1.30
2022-11-30T20:56:37.036Z,1.40
2022-11-30T20:59:06.940Z,1.30
2022-11-30T21:01:35.592Z,1.30
2022-11-30T21:04:03.898Z,1.30
2022-11-30T21:06:33.417Z,1.30
2022-11-30T21:09:02.085Z,1.30
2022-11-30T21:11:31.206Z,1.40
2022-11-30T21:14:04.056Z,1.50
2022-11-30T21:16:32.622Z,1.40
2022-11-30T21:19:01.963Z,1.40
2022-11-30T21:21:34.163Z,1.40
2022-11-30T21:24:04.529Z,1.40
2022-11-30T21:26:34.649Z,1.30
2022-11-30T21:29:06.856Z,1.30
2022-11-30T21:31:35.659Z,1.30
2022-11-30T21:34:04.384Z,1.30
2022-11-30T21:36:34.146Z,1.30
2022-11-30T21:39:06.305Z,1.30
2022-11-30T21:41:35.997Z,1.30
2022-11-30T21:44:06.264Z,1.30
2022-11-30T21:46:37.260Z,1.30
2022-11-30T21:49:06.819Z,1.30
2022-11-30T21:51:35.147Z,1.20
2022-11-30T21:54:07.215Z,1.10
2022-11-30T21:56:37.923Z,1.00
2022-11-30T21:59:10.132Z,1.00
2022-11-30T22:01:40.010Z,1.00
2022-11-30T22:04:11.067Z,1.00
2022-11-30T22:06:41.145Z,1.00
2022-11-30T22:09:13.186Z,1.10
2022-11-30T22:11:43.744Z,1.00
2022-11-30T22:14:15.520Z,1.00
2022-11-30T22:16:44.345Z,1.10
2022-11-30T22:19:12.768Z,1.00
2022-11-30T22:21:44.180Z,1.00
2022-11-30T22:24:16.570Z,1.00
2022-11-30T22:26:49.119Z,1.00
2022-11-30T22:29:21.154Z,0.90
2022-11-30T22:31:51.116Z,0.90
2022-11-30T22:34:19.694Z,0.80
2022-11-30T22:36:48.514Z,0.80
2022-11-30T22:39:19.337Z,0.80
2022-11-30T22:41:54.557Z,0.80
2022-11-30T22:44:26.428Z,0.80
2022-11-30T22:46:55.016Z,0.70
2022-11-30T22:49:23.724Z,0.80
2022-11-30T22:51:52.463Z,0.80
2022-11-30T22:54:20.611Z,0.90
2022-11-30T22:56:48.805Z,0.80
2022-11-30T22:59:17.258Z,0.90
2022-11-30T23:01:48.406Z,0.80
2022-11-30T23:04:18.249Z,0.90
2022-11-30T23:06:47.650Z,0.80
2022-11-30T23:09:19.247Z,0.90
2022-11-30T23:11:48.048Z,0.90
2022-11-30T23:14:16.533Z,0.90
2022-11-30T23:16:46.751Z,0.90
2022-11-30T23:19:15.554Z,0.90
2022-11-30T23:21:45.800Z,0.90
2022-11-30T23:24:16.415Z,0.90
2022-11-30T23:26:44.883Z,0.90
2022-11-30T23:29:15.710Z,0.90
2022-11-30T23:31:53.212Z,1.00
2022-11-30T23:34:29.812Z,0.90
2022-11-30T23:37:00.228Z,0.80
2022-11-30T23:39:28.415Z,0.90
2022-11-30T23:41:56.683Z,0.90
2022-11-30T23:44:25.135Z,0.90
2022-11-30T23:46:54.652Z,1.00
2022-11-30T23:49:23.998Z,1.00
2022-11-30T23:51:52.197Z,1.10
2022-11-30T23:54:20.443Z,1.10
2022-11-30T23:56:48.573Z,1.10
2022-11-30T23:59:16.940Z,1.00
